createdAt,value
2022-09-06T00:00:13.505Z,31.56
2022-09-06T00:00:43.520Z,31.57
2022-09-06T00:01:13.537Z,31.59
2022-09-06T00:01:43.561Z,31.59
2022-09-06T00:02:13.701Z,31.57
2022-09-06T00:02:43.745Z,31.57
2022-09-06T00:03:13.628Z,31.56
2022-09-06T00:03:43.699Z,31.54
2022-09-06T00:04:15.562Z,31.54
2022-09-06T00:04:43.802Z,31.56
2022-09-06T00:05:13.849Z,31.54
2022-09-06T00:05:43.871Z,31.56
2022-09-06T00:06:13.895Z,31.54
2022-09-06T00:06:43.904Z,31.54
2022-09-06T00:07:13.929Z,31.56
2022-09-06T00:07:43.945Z,31.54
2022-09-06T00:08:13.958Z,31.54
2022-09-06T00:08:43.974Z,31.53
2022-09-06T00:09:13.992Z,31.56
2022-09-06T00:09:44.018Z,31.54
2022-09-06T00:10:14.056Z,31.54
2022-09-06T00:10:44.068Z,31.51
2022-09-06T00:11:14.089Z,31.54
2022-09-06T00:11:44.104Z,31.56
2022-09-06T00:12:14.126Z,31.53
2022-09-06T00:12:44.140Z,31.54
2022-09-06T00:13:14.189Z,31.53
2022-09-06T00:13:44.197Z,31.56
2022-09-06T00:14:14.222Z,31.51
2022-09-06T00:14:44.250Z,31.56
2022-09-06T00:15:14.265Z,31.54
2022-09-06T00:15:44.335Z,31.53
2022-09-06T00:16:14.371Z,31.54
2022-09-06T00:16:44.380Z,31.54
2022-09-06T00:17:14.400Z,31.54
2022-09-06T00:17:44.413Z,31.54
2022-09-06T00:18:14.480Z,31.57
2022-09-06T00:18:44.494Z,31.51
2022-09-06T00:19:14.512Z,31.54
2022-09-06T00:19:44.534Z,31.51
2022-09-06T00:20:14.553Z,31.54
2022-09-06T00:20:44.570Z,31.54
2022-09-06T00:21:14.583Z,31.56
2022-09-06T00:21:44.617Z,31.56
2022-09-06T00:22:14.637Z,31.53
2022-09-06T00:22:44.653Z,31.54
2022-09-06T00:23:14.705Z,31.53
2022-09-06T00:23:44.733Z,31.54
2022-09-06T00:24:14.753Z,31.51
2022-09-06T00:24:44.774Z,31.54
2022-09-06T00:25:14.791Z,31.53
2022-09-06T00:25:44.815Z,31.53
2022-09-06T00:26:14.835Z,31.53
2022-09-06T00:26:44.849Z,31.54
2022-09-06T00:27:14.970Z,31.53
2022-09-06T00:27:45.086Z,31.51
2022-09-06T00:28:15.074Z,31.51
2022-09-06T00:28:45.189Z,31.54
2022-09-06T00:29:15.296Z,31.56
2022-09-06T00:29:45.395Z,31.53
2022-09-06T00:30:15.503Z,31.51
2022-09-06T00:30:45.660Z,31.54
2022-09-06T00:31:15.715Z,31.53
2022-09-06T00:31:45.713Z,31.53
2022-09-06T00:32:15.821Z,31.53
2022-09-06T00:32:45.929Z,31.51
2022-09-06T00:33:16.042Z,31.51
2022-09-06T00:33:46.157Z,31.51
2022-09-06T00:34:16.269Z,31.53
2022-09-06T00:34:46.383Z,31.54
2022-09-06T00:35:16.491Z,31.53
2022-09-06T00:35:46.618Z,31.54
2022-09-06T00:36:16.719Z,31.51
2022-09-06T00:36:46.830Z,31.54
2022-09-06T00:37:16.846Z,31.53
2022-09-06T00:37:46.868Z,31.50
2022-09-06T00:38:16.886Z,31.53
2022-09-06T00:38:46.906Z,31.53
2022-09-06T00:39:16.929Z,31.54
2022-09-06T00:39:46.996Z,31.53
2022-09-06T00:40:17.004Z,31.53
2022-09-06T00:40:47.042Z,31.54
2022-09-06T00:41:17.062Z,31.56
2022-09-06T00:41:47.089Z,31.56
2022-09-06T00:42:17.103Z,31.53
2022-09-06T00:42:47.119Z,31.54
2022-09-06T00:43:17.198Z,31.54
2022-09-06T00:43:47.214Z,31.56
2022-09-06T00:44:17.233Z,31.56
2022-09-06T00:44:47.260Z,31.53
2022-09-06T00:45:17.278Z,31.54
2022-09-06T00:45:47.323Z,31.53
2022-09-06T00:46:17.387Z,31.56
2022-09-06T00:46:47.409Z,31.54
2022-09-06T00:47:17.423Z,31.53
2022-09-06T00:47:47.439Z,31.53
2022-09-06T00:48:17.459Z,31.54
2022-09-06T00:48:47.470Z,31.54
2022-09-06T00:49:17.484Z,31.51
2022-09-06T00:49:47.513Z,31.53
2022-09-06T00:50:17.527Z,31.53
2022-09-06T00:50:47.559Z,31.50
2022-09-06T00:51:17.581Z,31.53
2022-09-06T00:51:47.601Z,31.50
2022-09-06T00:52:17.606Z,31.51
2022-09-06T00:52:47.633Z,31.51
2022-09-06T00:53:17.640Z,31.53
2022-09-06T00:53:47.658Z,31.51
2022-09-06T00:54:17.675Z,31.51
2022-09-06T00:54:47.686Z,31.51
2022-09-06T00:55:17.711Z,31.51
2022-09-06T00:55:47.734Z,31.51
2022-09-06T00:56:17.752Z,31.50
2022-09-06T00:56:47.769Z,31.50
2022-09-06T00:57:17.787Z,31.51
2022-09-06T00:57:47.800Z,31.49
2022-09-06T00:58:17.832Z,31.51
2022-09-06T00:58:47.847Z,31.49
2022-09-06T00:59:17.882Z,31.50
2022-09-06T00:59:47.905Z,31.51
2022-09-06T01:00:17.920Z,31.49
2022-09-06T01:00:47.934Z,31.46
2022-09-06T01:01:18.139Z,31.49
2022-09-06T01:01:48.168Z,31.47
2022-09-06T01:02:18.210Z,31.47
2022-09-06T01:02:48.417Z,31.47
2022-09-06T01:03:18.246Z,31.49
2022-09-06T01:03:48.267Z,31.50
2022-09-06T01:04:18.288Z,31.49
2022-09-06T01:04:48.309Z,31.47
2022-09-06T01:05:18.324Z,31.50
2022-09-06T01:05:52.696Z,31.46
2022-09-06T01:06:18.382Z,31.47
2022-09-06T01:06:48.395Z,31.46
2022-09-06T01:07:18.414Z,31.47
2022-09-06T01:07:48.429Z,31.44
2022-09-06T01:08:18.447Z,31.47
2022-09-06T01:08:48.467Z,31.47
2022-09-06T01:09:18.487Z,31.44
2022-09-06T01:09:48.502Z,31.46
2022-09-06T01:10:18.516Z,31.49
2022-09-06T01:10:48.529Z,31.44
2022-09-06T01:11:18.553Z,31.44
2022-09-06T01:11:48.572Z,31.47
2022-09-06T01:12:18.586Z,31.44
2022-09-06T01:12:48.604Z,31.46
2022-09-06T01:13:18.635Z,31.47
2022-09-06T01:13:48.652Z,31.47
2022-09-06T01:14:18.672Z,31.46
2022-09-06T01:14:48.690Z,31.46
2022-09-06T01:15:18.707Z,31.44
2022-09-06T01:15:48.810Z,31.44
2022-09-06T01:16:18.891Z,31.46
2022-09-06T01:16:48.897Z,31.47
2022-09-06T01:17:18.908Z,31.46
2022-09-06T01:17:48.926Z,31.44
2022-09-06T01:18:18.949Z,31.44
2022-09-06T01:18:48.976Z,31.44
2022-09-06T01:19:18.986Z,31.44
2022-09-06T01:19:49.003Z,31.44
2022-09-06T01:20:19.030Z,31.44
2022-09-06T01:20:49.044Z,31.43
2022-09-06T01:21:19.064Z,31.44
2022-09-06T01:21:49.093Z,31.43
2022-09-06T01:22:19.107Z,31.44
2022-09-06T01:22:49.126Z,31.43
2022-09-06T01:23:19.141Z,31.44
2022-09-06T01:23:49.152Z,31.46
2022-09-06T01:24:19.173Z,31.46
2022-09-06T01:24:49.221Z,31.44
2022-09-06T01:25:19.238Z,31.43
2022-09-06T01:25:49.255Z,31.43
2022-09-06T01:26:19.283Z,31.43
2022-09-06T01:26:49.295Z,31.43
2022-09-06T01:27:19.400Z,31.41
2022-09-06T01:27:49.515Z,31.44
2022-09-06T01:28:58.653Z,31.40
2022-09-06T01:29:28.729Z,31.39
2022-09-06T01:29:58.794Z,31.40
2022-09-06T01:30:28.873Z,31.40
2022-09-06T01:30:58.985Z,31.40
2022-09-06T01:31:29.096Z,31.36
2022-09-06T01:31:59.040Z,31.37
2022-09-06T01:32:29.108Z,31.40
2022-09-06T01:32:59.174Z,31.40
2022-09-06T01:33:29.235Z,31.37
2022-09-06T01:33:59.303Z,31.40
2022-09-06T01:34:29.375Z,31.40
2022-09-06T01:34:59.442Z,31.39
2022-09-06T01:35:29.509Z,31.40
2022-09-06T01:35:59.575Z,31.40
2022-09-06T01:36:29.640Z,31.40
2022-09-06T01:37:10.007Z,31.39
2022-09-06T01:37:29.798Z,31.40
2022-09-06T01:37:59.871Z,31.40
2022-09-06T01:38:29.937Z,31.40
2022-09-06T01:39:00.045Z,31.40
2022-09-06T01:39:30.281Z,31.40
2022-09-06T01:40:00.365Z,31.40
2022-09-06T01:40:30.353Z,31.41
2022-09-06T01:41:00.458Z,31.40
2022-09-06T01:41:30.563Z,31.40
2022-09-06T01:42:00.663Z,31.41
2022-09-06T01:42:30.770Z,31.39
2022-09-06T01:43:00.878Z,31.41
2022-09-06T01:43:30.987Z,31.40
2022-09-06T01:44:01.090Z,31.39
2022-09-06T01:44:31.202Z,31.41
2022-09-06T01:45:01.303Z,31.40
2022-09-06T01:45:31.408Z,31.41
2022-09-06T01:46:01.590Z,31.41
2022-09-06T01:46:31.617Z,31.41
2022-09-06T01:47:01.589Z,31.41
2022-09-06T01:47:31.695Z,31.40
2022-09-06T01:48:01.802Z,31.41
2022-09-06T01:48:31.908Z,31.43
2022-09-06T01:49:02.014Z,31.40
2022-09-06T01:49:32.113Z,31.40
2022-09-06T01:50:02.213Z,31.40
2022-09-06T01:50:32.319Z,31.40
2022-09-06T01:51:02.422Z,31.40
2022-09-06T01:51:32.528Z,31.37
2022-09-06T01:52:02.635Z,31.40
2022-09-06T01:52:32.745Z,31.41
2022-09-06T01:53:02.850Z,31.41
2022-09-06T01:53:32.958Z,31.41
2022-09-06T01:54:03.062Z,31.39
2022-09-06T01:54:33.172Z,31.40
2022-09-06T01:55:03.278Z,31.39
2022-09-06T01:55:33.383Z,31.37
2022-09-06T01:56:03.484Z,31.41
2022-09-06T01:56:33.589Z,31.39
2022-09-06T01:57:03.696Z,31.37
2022-09-06T01:57:33.807Z,31.39
2022-09-06T01:58:03.916Z,31.37
2022-09-06T01:58:34.027Z,31.39
2022-09-06T01:59:04.128Z,31.37
2022-09-06T01:59:34.232Z,31.36
2022-09-06T02:00:04.339Z,31.37
2022-09-06T02:00:34.442Z,31.36
2022-09-06T02:01:04.609Z,31.37
2022-09-06T02:01:34.661Z,31.37
2022-09-06T02:02:04.758Z,31.37
2022-09-06T02:02:34.863Z,31.39
2022-09-06T02:03:04.839Z,31.36
2022-09-06T02:03:34.942Z,31.36
2022-09-06T02:04:05.040Z,31.40
2022-09-06T02:04:35.147Z,31.37
2022-09-06T02:05:05.253Z,31.36
2022-09-06T02:05:35.360Z,31.37
2022-09-06T02:06:05.464Z,31.37
2022-09-06T02:06:35.569Z,31.40
2022-09-06T02:07:05.688Z,31.37
2022-09-06T02:07:35.809Z,31.37
2022-09-06T02:08:05.911Z,31.39
2022-09-06T02:08:36.016Z,31.39
2022-09-06T02:09:06.120Z,31.39
2022-09-06T02:09:36.231Z,31.37
2022-09-06T02:10:06.331Z,31.37
2022-09-06T02:10:36.440Z,31.37
2022-09-06T02:11:06.546Z,31.37
2022-09-06T02:11:36.649Z,31.36
2022-09-06T02:12:06.754Z,31.37
2022-09-06T02:12:36.872Z,31.37
2022-09-06T02:13:06.845Z,31.36
2022-09-06T02:13:36.951Z,31.36
2022-09-06T02:14:07.047Z,31.39
2022-09-06T02:14:37.150Z,31.36
2022-09-06T02:15:07.255Z,31.34
2022-09-06T02:15:37.359Z,31.36
2022-09-06T02:16:07.464Z,31.33
2022-09-06T02:16:37.665Z,31.37
2022-09-06T02:17:07.686Z,31.36
2022-09-06T02:17:37.719Z,31.36
2022-09-06T02:18:07.691Z,31.36
2022-09-06T02:18:37.797Z,31.36
2022-09-06T02:19:07.907Z,31.34
2022-09-06T02:19:38.007Z,31.36
2022-09-06T02:20:08.111Z,31.33
2022-09-06T02:20:38.212Z,31.34
2022-09-06T02:21:08.318Z,31.33
2022-09-06T02:21:38.425Z,31.34
2022-09-06T02:22:08.528Z,31.34
2022-09-06T02:22:38.639Z,31.34
2022-09-06T02:23:08.745Z,31.34
2022-09-06T02:23:38.849Z,31.33
2022-09-06T02:24:08.953Z,31.32
2022-09-06T02:24:39.057Z,31.30
2022-09-06T02:25:09.171Z,31.34
2022-09-06T02:25:39.274Z,31.33
2022-09-06T02:26:09.375Z,31.33
2022-09-06T02:26:39.480Z,31.33
2022-09-06T02:27:09.606Z,31.33
2022-09-06T02:27:39.589Z,31.32
2022-09-06T02:28:09.703Z,31.32
2022-09-06T02:28:39.787Z,31.34
2022-09-06T02:29:09.859Z,31.32
2022-09-06T02:29:39.925Z,31.32
2022-09-06T02:30:09.993Z,31.33
2022-09-06T02:30:40.149Z,31.33
2022-09-06T02:31:10.199Z,31.32
2022-09-06T02:31:40.155Z,31.33
2022-09-06T02:32:10.221Z,31.32
2022-09-06T02:32:40.286Z,31.29
2022-09-06T02:33:10.345Z,31.32
2022-09-06T02:33:40.410Z,31.29
2022-09-06T02:34:10.474Z,31.32
2022-09-06T02:34:40.547Z,31.30
2022-09-06T02:35:10.612Z,31.30
2022-09-06T02:35:40.681Z,31.30
2022-09-06T02:36:10.754Z,31.32
2022-09-06T02:36:40.858Z,31.34
2022-09-06T02:37:10.919Z,31.29
2022-09-06T02:37:40.987Z,31.32
2022-09-06T02:38:11.059Z,31.30
2022-09-06T02:38:41.146Z,31.32
2022-09-06T02:39:11.249Z,31.30
2022-09-06T02:39:41.399Z,31.32
2022-09-06T02:40:11.410Z,31.30
2022-09-06T02:40:41.403Z,31.32
2022-09-06T02:41:11.505Z,31.30
2022-09-06T02:41:41.628Z,31.30
2022-09-06T02:42:11.728Z,31.32
2022-09-06T02:42:41.843Z,31.30
2022-09-06T02:43:11.944Z,31.30
2022-09-06T02:43:42.053Z,31.28
2022-09-06T02:44:12.156Z,31.30
2022-09-06T02:44:42.264Z,31.26
2022-09-06T02:45:12.369Z,31.29
2022-09-06T02:45:42.539Z,31.28
2022-09-06T02:46:12.648Z,31.29
2022-09-06T02:46:42.686Z,31.30
2022-09-06T02:47:12.663Z,31.28
2022-09-06T02:47:42.765Z,31.29
2022-09-06T02:48:12.869Z,31.30
2022-09-06T02:48:42.977Z,31.29
2022-09-06T02:49:13.079Z,31.28
2022-09-06T02:49:43.180Z,31.29
2022-09-06T02:50:13.280Z,31.28
2022-09-06T02:50:43.388Z,31.29
2022-09-06T02:51:13.488Z,31.29
2022-09-06T02:51:43.616Z,31.29
2022-09-06T02:52:13.598Z,31.29
2022-09-06T02:52:43.708Z,31.28
2022-09-06T02:53:13.808Z,31.29
2022-09-06T02:53:43.912Z,31.28
2022-09-06T02:54:14.011Z,31.28
2022-09-06T02:54:44.113Z,31.28
2022-09-06T02:55:14.213Z,31.28
2022-09-06T02:55:44.325Z,31.26
2022-09-06T02:56:14.433Z,31.26
2022-09-06T02:56:46.208Z,31.28
2022-09-06T02:57:14.555Z,31.25
2022-09-06T02:57:44.662Z,31.28
2022-09-06T02:58:14.768Z,31.23
2022-09-06T02:58:44.874Z,31.26
2022-09-06T02:59:14.978Z,31.26
2022-09-06T02:59:45.086Z,31.28
2022-09-06T03:00:15.189Z,31.23
2022-09-06T03:00:45.300Z,31.26
2022-09-06T03:01:15.421Z,31.23
2022-09-06T03:01:45.551Z,31.26
2022-09-06T03:02:15.483Z,31.25
2022-09-06T03:02:45.566Z,31.25
2022-09-06T03:03:15.581Z,31.26
2022-09-06T03:03:45.675Z,31.25
2022-09-06T03:04:15.777Z,31.26
2022-09-06T03:04:45.884Z,31.25
2022-09-06T03:05:15.988Z,31.26
2022-09-06T03:05:46.091Z,31.25
2022-09-06T03:06:16.194Z,31.26
2022-09-06T03:06:46.330Z,31.25
2022-09-06T03:07:16.307Z,31.25
2022-09-06T03:07:46.415Z,31.23
2022-09-06T03:08:16.518Z,31.23
2022-09-06T03:08:46.630Z,31.26
2022-09-06T03:09:16.738Z,31.25
2022-09-06T03:09:46.850Z,31.25
2022-09-06T03:10:16.960Z,31.23
2022-09-06T03:10:47.070Z,31.23
2022-09-06T03:11:17.182Z,31.25
2022-09-06T03:11:47.295Z,31.23
2022-09-06T03:12:17.285Z,31.23
2022-09-06T03:12:47.380Z,31.26
2022-09-06T03:13:17.485Z,31.25
2022-09-06T03:13:47.592Z,31.25
2022-09-06T03:14:17.696Z,31.25
2022-09-06T03:14:50.155Z,31.26
2022-09-06T03:15:17.802Z,31.25
2022-09-06T03:15:47.909Z,31.25
2022-09-06T03:16:18.045Z,31.26
2022-09-06T03:16:48.091Z,31.22
2022-09-06T03:17:18.091Z,31.22
2022-09-06T03:17:48.196Z,31.23
2022-09-06T03:18:18.301Z,31.22
2022-09-06T03:18:48.412Z,31.23
2022-09-06T03:19:18.522Z,31.23
2022-09-06T03:19:48.627Z,31.23
2022-09-06T03:20:18.733Z,31.22
2022-09-06T03:20:48.839Z,31.22
2022-09-06T03:21:18.947Z,31.22
2022-09-06T03:21:49.068Z,31.22
2022-09-06T03:22:19.048Z,31.23
2022-09-06T03:22:49.147Z,31.22
2022-09-06T03:23:19.253Z,31.23
2022-09-06T03:23:49.365Z,31.22
2022-09-06T03:24:19.464Z,31.21
2022-09-06T03:24:49.563Z,31.22
2022-09-06T03:25:19.668Z,31.22
2022-09-06T03:25:49.775Z,31.23
2022-09-06T03:26:19.880Z,31.21
2022-09-06T03:26:49.989Z,31.23
2022-09-06T03:27:20.090Z,31.23
2022-09-06T03:27:50.195Z,31.22
2022-09-06T03:28:20.301Z,31.21
2022-09-06T03:28:50.421Z,31.22
2022-09-06T03:29:20.463Z,31.22
2022-09-06T03:29:50.530Z,31.22
2022-09-06T03:30:20.597Z,31.22
2022-09-06T03:30:50.706Z,31.21
2022-09-06T03:31:20.827Z,31.21
2022-09-06T03:31:50.779Z,31.19
2022-09-06T03:32:20.848Z,31.21
2022-09-06T03:32:50.929Z,31.21
2022-09-06T03:33:20.987Z,31.19
2022-09-06T03:33:51.074Z,31.21
2022-09-06T03:34:21.118Z,31.19
2022-09-06T03:34:51.181Z,31.23
2022-09-06T03:35:21.249Z,31.22
2022-09-06T03:35:51.314Z,31.19
2022-09-06T03:36:21.380Z,31.19
2022-09-06T03:36:51.451Z,31.19
2022-09-06T03:37:21.518Z,31.21
2022-09-06T03:37:51.582Z,31.19
2022-09-06T03:38:21.651Z,31.21
2022-09-06T03:38:51.745Z,31.19
2022-09-06T03:39:21.845Z,31.21
2022-09-06T03:39:51.976Z,31.19
2022-09-06T03:40:22.062Z,31.18
2022-09-06T03:40:52.167Z,31.19
2022-09-06T03:41:22.272Z,31.19
2022-09-06T03:41:52.266Z,31.18
2022-09-06T03:42:22.380Z,31.18
2022-09-06T03:42:52.483Z,31.19
2022-09-06T03:43:22.586Z,31.19
2022-09-06T03:43:52.688Z,31.21
2022-09-06T03:44:22.794Z,31.19
2022-09-06T03:44:52.900Z,31.18
2022-09-06T03:45:23.007Z,31.16
2022-09-06T03:45:53.190Z,31.18
2022-09-06T03:46:23.329Z,31.18
2022-09-06T03:46:53.311Z,31.16
2022-09-06T03:47:23.416Z,31.19
2022-09-06T03:47:53.512Z,31.19
2022-09-06T03:48:23.754Z,31.18
2022-09-06T03:48:53.635Z,31.19
2022-09-06T03:49:23.737Z,31.19
2022-09-06T03:49:53.836Z,31.21
2022-09-06T03:50:23.940Z,31.19
2022-09-06T03:50:54.040Z,31.22
2022-09-06T03:51:24.140Z,31.19
2022-09-06T03:51:54.241Z,31.21
2022-09-06T03:52:24.345Z,31.18
2022-09-06T03:52:54.446Z,31.19
2022-09-06T03:53:24.550Z,31.22
2022-09-06T03:53:54.652Z,31.18
2022-09-06T03:54:24.757Z,31.21
2022-09-06T03:54:54.862Z,31.21
2022-09-06T03:55:24.963Z,31.18
2022-09-06T03:55:55.063Z,31.21
2022-09-06T03:56:25.168Z,31.21
2022-09-06T03:56:55.277Z,31.18
2022-09-06T03:57:25.383Z,31.21
2022-09-06T03:57:55.480Z,31.21
2022-09-06T03:58:25.613Z,31.22
2022-09-06T03:58:55.689Z,31.23
2022-09-06T03:59:25.794Z,31.23
2022-09-06T03:59:55.902Z,31.21
2022-09-06T04:00:26.004Z,31.25
2022-09-06T04:00:56.177Z,31.25
2022-09-06T04:01:26.231Z,31.23
2022-09-06T04:01:56.325Z,31.25
2022-09-06T04:02:26.350Z,31.28
2022-09-06T04:03:00.990Z,31.26
2022-09-06T04:03:26.309Z,31.26
2022-09-06T04:03:56.423Z,31.29
2022-09-06T04:04:26.527Z,31.26
2022-09-06T04:04:56.623Z,31.29
2022-09-06T04:05:26.730Z,31.29
2022-09-06T04:05:56.835Z,31.30
2022-09-06T04:06:26.936Z,31.30
2022-09-06T04:06:57.045Z,31.30
2022-09-06T04:07:27.148Z,31.32
2022-09-06T04:07:57.252Z,31.32
2022-09-06T04:08:27.551Z,31.29
2022-09-06T04:08:57.462Z,31.30
2022-09-06T04:09:27.569Z,31.32
2022-09-06T04:09:57.674Z,31.33
2022-09-06T04:10:27.782Z,31.33
2022-09-06T04:10:57.886Z,31.33
2022-09-06T04:11:27.991Z,31.32
2022-09-06T04:11:58.108Z,31.33
2022-09-06T04:12:28.095Z,31.34
2022-09-06T04:12:58.198Z,31.36
2022-09-06T04:13:28.301Z,31.34
2022-09-06T04:13:58.405Z,31.34
2022-09-06T04:14:28.514Z,31.34
2022-09-06T04:14:58.617Z,31.37
2022-09-06T04:15:28.724Z,31.36
2022-09-06T04:15:58.832Z,31.40
2022-09-06T04:16:28.953Z,31.36
2022-09-06T04:16:59.290Z,31.37
2022-09-06T04:17:28.991Z,31.36
2022-09-06T04:17:59.091Z,31.36
2022-09-06T04:18:29.287Z,31.37
2022-09-06T04:19:00.206Z,31.39
2022-09-06T04:19:29.295Z,31.37
2022-09-06T04:19:59.401Z,31.37
2022-09-06T04:20:29.505Z,31.37
2022-09-06T04:20:59.621Z,31.37
2022-09-06T04:21:29.740Z,31.39
2022-09-06T04:21:59.721Z,31.39
2022-09-06T04:22:29.823Z,31.40
2022-09-06T04:22:59.932Z,31.39
2022-09-06T04:23:30.033Z,31.37
2022-09-06T04:24:00.142Z,31.39
2022-09-06T04:24:30.250Z,31.39
2022-09-06T04:25:00.353Z,31.37
2022-09-06T04:25:30.454Z,31.37
2022-09-06T04:26:00.562Z,31.33
2022-09-06T04:26:30.671Z,31.36
2022-09-06T04:27:00.794Z,31.32
2022-09-06T04:27:30.775Z,31.32
2022-09-06T04:28:00.878Z,31.30
2022-09-06T04:28:30.976Z,31.06
2022-09-06T04:29:01.043Z,30.81
2022-09-06T04:29:31.110Z,30.74
2022-09-06T04:30:01.177Z,30.68
2022-09-06T04:30:31.240Z,30.67
2022-09-06T04:31:04.722Z,30.67
2022-09-06T04:31:31.467Z,30.70
2022-09-06T04:32:01.471Z,30.70
2022-09-06T04:32:31.458Z,30.75
2022-09-06T04:33:01.518Z,30.74
2022-09-06T04:33:31.590Z,30.75
2022-09-06T04:34:01.659Z,30.77
2022-09-06T04:34:31.729Z,30.75
2022-09-06T04:35:01.802Z,30.75
2022-09-06T04:35:31.868Z,30.75
2022-09-06T04:36:01.938Z,30.75
2022-09-06T04:36:31.996Z,30.74
2022-09-06T04:37:02.063Z,30.75
2022-09-06T04:37:32.133Z,30.74
2022-09-06T04:38:02.192Z,30.71
2022-09-06T04:38:32.266Z,30.70
2022-09-06T04:39:02.367Z,30.68
2022-09-06T04:39:32.487Z,30.66
2022-09-06T04:40:02.687Z,30.63
2022-09-06T04:40:32.525Z,30.60
2022-09-06T04:41:02.629Z,30.61
2022-09-06T04:41:32.744Z,30.64
2022-09-06T04:42:02.840Z,30.64
2022-09-06T04:42:32.952Z,30.63
2022-09-06T04:43:03.054Z,30.64
2022-09-06T04:43:33.161Z,30.63
2022-09-06T04:44:03.263Z,30.61
2022-09-06T04:44:33.370Z,30.66
2022-09-06T04:45:03.471Z,30.68
2022-09-06T04:45:33.628Z,30.68
2022-09-06T04:46:03.682Z,30.68
2022-09-06T04:46:33.641Z,30.70
2022-09-06T04:47:07.509Z,30.68
2022-09-06T04:47:33.761Z,30.68
2022-09-06T04:48:03.866Z,30.70
2022-09-06T04:48:33.978Z,30.70
2022-09-06T04:49:04.082Z,30.70
2022-09-06T04:49:34.184Z,30.70
2022-09-06T04:50:04.289Z,30.68
2022-09-06T04:50:34.396Z,30.70
2022-09-06T04:51:04.516Z,30.67
2022-09-06T04:51:34.610Z,30.67
2022-09-06T04:52:04.725Z,30.68
2022-09-06T04:52:34.850Z,30.66
2022-09-06T04:53:04.828Z,30.64
2022-09-06T04:53:34.932Z,30.64
2022-09-06T04:54:05.047Z,30.66
2022-09-06T04:54:35.027Z,30.66
2022-09-06T04:55:05.131Z,30.63
2022-09-06T04:55:35.238Z,30.66
2022-09-06T04:56:05.337Z,30.63
2022-09-06T04:56:35.438Z,30.59
2022-09-06T04:57:05.618Z,30.61
2022-09-06T04:57:35.597Z,30.63
2022-09-06T04:58:05.697Z,30.61
2022-09-06T04:58:35.800Z,30.61
2022-09-06T04:59:05.906Z,30.63
2022-09-06T04:59:36.056Z,30.57
2022-09-06T05:00:06.035Z,30.60
2022-09-06T05:00:36.150Z,30.61
2022-09-06T05:01:06.182Z,30.59
2022-09-06T05:01:36.296Z,30.59
2022-09-06T05:02:06.347Z,30.60
2022-09-06T05:02:36.353Z,30.59
2022-09-06T05:03:06.319Z,30.60
2022-09-06T05:03:36.426Z,30.59
2022-09-06T05:04:06.531Z,30.56
2022-09-06T05:04:36.642Z,30.57
2022-09-06T05:05:06.737Z,30.56
2022-09-06T05:05:36.849Z,30.57
2022-09-06T05:06:06.954Z,30.56
2022-09-06T05:06:37.067Z,30.54
2022-09-06T05:07:07.189Z,30.54
2022-09-06T05:07:37.171Z,30.54
2022-09-06T05:08:07.280Z,30.53
2022-09-06T05:08:37.384Z,30.51
2022-09-06T05:09:07.486Z,30.53
2022-09-06T05:09:37.588Z,30.56
2022-09-06T05:10:07.697Z,30.53
2022-09-06T05:10:37.805Z,30.53
2022-09-06T05:11:07.909Z,30.54
2022-09-06T05:11:38.012Z,30.54
2022-09-06T05:12:08.131Z,30.54
2022-09-06T05:12:42.185Z,30.56
2022-09-06T05:13:08.114Z,30.53
2022-09-06T05:13:38.269Z,30.56
2022-09-06T05:14:08.338Z,30.53
2022-09-06T05:14:38.448Z,30.56
2022-09-06T05:15:08.555Z,30.57
2022-09-06T05:15:38.659Z,30.53
2022-09-06T05:16:08.827Z,30.54
2022-09-06T05:16:38.849Z,30.56
2022-09-06T05:17:08.866Z,30.54
2022-09-06T05:17:38.851Z,30.56
2022-09-06T05:18:12.838Z,30.53
2022-09-06T05:18:38.952Z,30.56
2022-09-06T05:19:09.057Z,30.54
2022-09-06T05:19:39.165Z,30.57
2022-09-06T05:20:09.266Z,30.56
2022-09-06T05:20:39.369Z,30.54
2022-09-06T05:21:09.473Z,30.57
2022-09-06T05:21:39.574Z,30.54
2022-09-06T05:22:09.687Z,30.54
2022-09-06T05:22:39.790Z,30.54
2022-09-06T05:23:09.895Z,30.53
2022-09-06T05:23:40.003Z,30.54
2022-09-06T05:24:10.099Z,30.56
2022-09-06T05:24:40.204Z,30.54
2022-09-06T05:25:10.313Z,30.54
2022-09-06T05:25:40.414Z,30.54
2022-09-06T05:26:10.529Z,30.57
2022-09-06T05:26:40.626Z,30.53
2022-09-06T05:27:10.753Z,30.57
2022-09-06T05:27:40.737Z,30.54
2022-09-06T05:28:10.837Z,30.53
2022-09-06T05:28:40.922Z,30.54
2022-09-06T05:29:10.991Z,30.49
2022-09-06T05:29:41.062Z,30.53
2022-09-06T05:30:11.128Z,30.50
2022-09-06T05:30:41.190Z,30.51
2022-09-06T05:31:11.257Z,30.49
2022-09-06T05:31:41.428Z,30.50
2022-09-06T05:32:11.389Z,30.50
2022-09-06T05:32:41.455Z,30.49
2022-09-06T05:33:11.525Z,30.49
2022-09-06T05:33:41.625Z,30.44
2022-09-06T05:34:11.693Z,30.44
2022-09-06T05:34:41.761Z,30.46
2022-09-06T05:35:11.827Z,30.42
2022-09-06T05:35:41.896Z,30.44
2022-09-06T05:36:11.961Z,30.42
2022-09-06T05:36:42.025Z,30.42
2022-09-06T05:37:12.123Z,30.40
2022-09-06T05:37:42.196Z,30.40
2022-09-06T05:38:12.261Z,30.37
2022-09-06T05:38:42.349Z,30.37
2022-09-06T05:39:12.453Z,30.34
2022-09-06T05:39:42.597Z,30.34
2022-09-06T05:40:12.668Z,30.33
2022-09-06T05:40:42.646Z,30.34
2022-09-06T05:41:12.744Z,30.40
2022-09-06T05:41:42.849Z,30.39
2022-09-06T05:42:17.165Z,30.37
2022-09-06T05:42:42.977Z,30.40
2022-09-06T05:43:13.079Z,30.37
2022-09-06T05:43:43.184Z,30.39
2022-09-06T05:44:13.289Z,30.39
2022-09-06T05:44:43.401Z,30.39
2022-09-06T05:45:13.499Z,30.39
2022-09-06T05:45:43.690Z,30.40
2022-09-06T05:46:13.745Z,30.42
2022-09-06T05:46:43.794Z,30.42
2022-09-06T05:47:13.916Z,30.43
2022-09-06T05:47:43.895Z,30.43
2022-09-06T05:48:14.007Z,30.43
2022-09-06T05:48:44.107Z,30.43
2022-09-06T05:49:14.213Z,30.43
2022-09-06T05:49:44.311Z,30.44
2022-09-06T05:50:14.418Z,30.44
2022-09-06T05:50:44.523Z,30.47
2022-09-06T05:51:14.626Z,30.43
2022-09-06T05:51:44.733Z,30.43
2022-09-06T05:52:14.978Z,30.44
2022-09-06T05:52:44.959Z,30.44
2022-09-06T05:53:15.059Z,30.46
2022-09-06T05:53:45.162Z,30.44
2022-09-06T05:54:15.281Z,30.46
2022-09-06T05:54:45.340Z,30.44
2022-09-06T05:55:15.351Z,30.46
2022-09-06T05:55:45.458Z,30.44
2022-09-06T05:56:15.575Z,30.47
2022-09-06T05:56:45.578Z,30.46
2022-09-06T05:57:15.567Z,30.47
2022-09-06T05:57:45.674Z,30.44
2022-09-06T05:58:15.781Z,30.47
2022-09-06T05:58:45.887Z,30.46
2022-09-06T05:59:15.992Z,30.47
2022-09-06T05:59:46.091Z,30.47
2022-09-06T06:00:16.207Z,30.47
2022-09-06T06:00:46.305Z,30.47
2022-09-06T06:01:16.495Z,30.47
2022-09-06T06:01:46.639Z,30.46
2022-09-06T06:02:16.619Z,30.49
2022-09-06T06:02:46.720Z,30.49
2022-09-06T06:03:16.594Z,30.46
2022-09-06T06:03:46.697Z,30.49
2022-09-06T06:04:16.801Z,30.51
2022-09-06T06:04:46.907Z,30.50
2022-09-06T06:05:17.046Z,30.51
2022-09-06T06:05:47.129Z,30.51
2022-09-06T06:06:17.246Z,30.50
2022-09-06T06:06:47.244Z,30.50
2022-09-06T06:07:17.404Z,30.51
2022-09-06T06:07:47.420Z,30.53
2022-09-06T06:08:17.522Z,30.50
2022-09-06T06:08:47.627Z,30.50
2022-09-06T06:09:17.740Z,30.53
2022-09-06T06:09:47.847Z,30.51
2022-09-06T06:10:17.950Z,30.51
2022-09-06T06:10:48.052Z,30.50
2022-09-06T06:11:18.169Z,30.51
2022-09-06T06:11:48.273Z,30.50
2022-09-06T06:12:18.389Z,30.51
2022-09-06T06:12:48.368Z,30.53
2022-09-06T06:13:18.484Z,30.51
2022-09-06T06:13:48.595Z,30.56
2022-09-06T06:14:18.699Z,30.50
2022-09-06T06:14:48.807Z,30.53
2022-09-06T06:15:18.914Z,30.53
2022-09-06T06:15:49.022Z,30.51
2022-09-06T06:16:19.231Z,30.54
2022-09-06T06:16:49.322Z,30.56
2022-09-06T06:17:19.327Z,30.50
2022-09-06T06:17:49.295Z,30.54
2022-09-06T06:18:19.399Z,30.53
2022-09-06T06:18:52.283Z,30.54
2022-09-06T06:19:19.579Z,30.53
2022-09-06T06:19:49.684Z,30.53
2022-09-06T06:20:19.793Z,30.56
2022-09-06T06:20:49.891Z,30.54
2022-09-06T06:21:20.000Z,30.56
2022-09-06T06:21:50.103Z,30.54
2022-09-06T06:22:20.231Z,30.54
2022-09-06T06:22:50.212Z,30.54
2022-09-06T06:23:20.322Z,30.56
2022-09-06T06:23:50.424Z,30.54
2022-09-06T06:24:20.533Z,30.51
2022-09-06T06:24:50.636Z,30.54
2022-09-06T06:25:20.747Z,30.56
2022-09-06T06:25:50.735Z,30.56
2022-09-06T06:26:20.846Z,30.56
2022-09-06T06:26:50.945Z,30.60
2022-09-06T06:27:21.071Z,30.54
2022-09-06T06:27:51.049Z,30.57